Cedar Valley, Minnesota
Current Conditions -  °F | °C
As of 7:57 PM on Saturday 20 Dec 2014 (Local Time) from KCOQ Reporting Station
Haze Haze  
Wind Chill: 21°   Ceiling: 800
Heat Index: 28°   Visibility: 5mi
Dew Point: 27°   Wind: 7mph
Humidity: 93%   Direction: 180°S
Pressure: 30.05"   Gusts: NA
Location:  46.9584°N, 92.9445°W
Report Text: KCOQ 210157Z AUTO 18006KT 5SM BR OVC008 M02/M03 A3005 RMK AO2
Loading
Personal Weather Stations






























Interactive Weather Map New forecast layout! Learn more

10-Day Weather Forecast

Advertisements
Track Severe Weather on mobile